createdAt,value
2019-05-13T00:00:46.236Z,64.09
2019-05-13T00:03:16.014Z,64.09
2019-05-13T00:05:45.742Z,64.32
2019-05-13T00:08:15.200Z,64.39
2019-05-13T00:10:45.412Z,64.65
2019-05-13T00:13:15.361Z,65.10
2019-05-13T00:15:50.801Z,65.48
2019-05-13T00:18:25.304Z,65.51
2019-05-13T00:20:55.080Z,65.98
2019-05-13T00:23:24.743Z,66.16
2019-05-13T00:25:55.057Z,66.15
2019-05-13T00:28:24.755Z,66.38
2019-05-13T00:30:54.455Z,66.57
2019-05-13T00:33:24.876Z,66.70
2019-05-13T00:35:54.651Z,67.06
2019-05-13T00:38:24.731Z,67.35
2019-05-13T00:40:57.919Z,67.47
2019-05-13T00:43:27.577Z,67.79
2019-05-13T00:45:57.535Z,67.84
2019-05-13T00:48:29.697Z,67.97
2019-05-13T00:51:03.865Z,68.17
2019-05-13T00:53:35.323Z,68.25
2019-05-13T00:56:07.343Z,68.59
2019-05-13T00:58:37.274Z,68.85
2019-05-13T01:01:10.789Z,69.00
2019-05-13T01:03:40.568Z,69.12
2019-05-13T01:06:10.218Z,69.21
2019-05-13T01:08:40.040Z,69.03
2019-05-13T01:11:09.583Z,68.96
2019-05-13T01:13:40.553Z,68.98
2019-05-13T01:16:10.243Z,68.82
2019-05-13T01:18:39.862Z,68.86
2019-05-13T01:21:09.853Z,69.08
2019-05-13T01:23:39.932Z,69.09
2019-05-13T01:26:10.186Z,69.25
2019-05-13T01:28:43.629Z,69.37
2019-05-13T01:31:13.301Z,69.43
2019-05-13T01:33:44.479Z,69.49
2019-05-13T01:36:14.153Z,69.87
2019-05-13T01:38:43.885Z,70.02
2019-05-13T01:41:13.746Z,69.89
2019-05-13T01:43:44.242Z,70.16
2019-05-13T01:46:14.959Z,70.18
2019-05-13T01:48:45.539Z,70.37
2019-05-13T01:51:15.270Z,70.41
2019-05-13T01:53:44.847Z,70.64
2019-05-13T01:56:14.620Z,70.82
2019-05-13T01:58:44.959Z,71.10
2019-05-13T02:01:15.125Z,71.14
2019-05-13T02:03:45.805Z,71.27
2019-05-13T02:06:15.524Z,71.45
2019-05-13T02:08:45.553Z,71.69
2019-05-13T02:11:15.224Z,71.94
2019-05-13T02:13:50.694Z,72.14
2019-05-13T02:16:20.072Z,72.12
2019-05-13T02:18:49.615Z,72.22
2019-05-13T02:21:19.190Z,72.26
2019-05-13T02:23:48.643Z,72.53
2019-05-13T02:26:18.175Z,72.45
2019-05-13T02:28:47.873Z,72.52
2019-05-13T02:31:25.838Z,72.47
2019-05-13T02:33:48.706Z,72.59
2019-05-13T02:36:22.537Z,72.51
2019-05-13T02:38:52.952Z,72.59
2019-05-13T02:41:23.112Z,72.26
2019-05-13T02:43:53.552Z,72.03
2019-05-13T02:46:23.221Z,72.41
2019-05-13T02:48:53.383Z,72.42
2019-05-13T02:51:23.293Z,72.58
2019-05-13T02:53:53.067Z,72.67
2019-05-13T02:56:22.915Z,72.79
2019-05-13T02:58:52.814Z,72.86
2019-05-13T03:01:22.583Z,73.10
2019-05-13T03:03:52.991Z,73.17
2019-05-13T03:06:24.663Z,73.42
2019-05-13T03:08:54.751Z,73.69
2019-05-13T03:11:24.374Z,73.87
2019-05-13T03:13:53.949Z,73.94
2019-05-13T03:16:45.527Z,74.13
2019-05-13T03:19:15.301Z,73.95
2019-05-13T03:21:47.282Z,74.29
2019-05-13T03:24:16.919Z,74.61
2019-05-13T03:26:46.396Z,74.64
2019-05-13T03:29:16.205Z,74.86
2019-05-13T03:31:47.078Z,75.08
2019-05-13T03:34:25.532Z,75.26
2019-05-13T03:36:56.897Z,75.20
2019-05-13T03:39:23.593Z,75.24
2019-05-13T03:41:56.279Z,75.23
2019-05-13T03:44:28.095Z,75.25
2019-05-13T03:47:03.393Z,74.86
2019-05-13T03:49:36.392Z,74.30
2019-05-13T03:52:06.287Z,73.72
2019-05-13T03:54:36.817Z,73.45
2019-05-13T03:57:08.277Z,72.91
2019-05-13T03:59:37.825Z,72.40
2019-05-13T04:02:07.608Z,71.45
2019-05-13T04:04:37.140Z,71.15
2019-05-13T04:07:06.767Z,70.28
2019-05-13T04:09:38.609Z,69.95
2019-05-13T04:12:13.410Z,69.32
2019-05-13T04:14:43.056Z,69.48
2019-05-13T04:17:12.861Z,68.08
2019-05-13T04:19:42.749Z,68.99
2019-05-13T04:22:13.071Z,68.80
2019-05-13T04:24:43.150Z,68.71
2019-05-13T04:27:13.515Z,67.99
2019-05-13T04:29:45.485Z,67.73
2019-05-13T04:32:18.823Z,66.91
2019-05-13T04:34:49.054Z,66.97
2019-05-13T04:37:22.250Z,66.54
2019-05-13T04:39:55.798Z,66.66
2019-05-13T04:42:23.952Z,66.39
2019-05-13T04:44:53.523Z,66.51
2019-05-13T04:47:23.160Z,65.30
2019-05-13T04:49:53.811Z,64.62
2019-05-13T04:52:23.861Z,63.14
2019-05-13T04:54:53.483Z,62.69
2019-05-13T04:57:26.236Z,62.81
2019-05-13T04:59:57.225Z,63.97
2019-05-13T05:02:54.800Z,64.83
2019-05-13T05:05:53.056Z,63.39
2019-05-13T05:09:12.847Z,63.10
2019-05-13T05:12:19.804Z,62.00
2019-05-13T05:15:19.894Z,62.74
2019-05-13T05:18:28.833Z,62.72
2019-05-13T05:21:06.004Z,61.30
2019-05-13T05:24:14.961Z,61.30
2019-05-13T05:27:27.247Z,60.41
2019-05-13T05:30:41.181Z,59.10
2019-05-13T05:33:37.667Z,57.90
2019-05-13T05:36:53.649Z,60.56
2019-05-13T05:39:25.615Z,60.22
2019-05-13T05:41:57.192Z,60.45
2019-05-13T05:44:29.190Z,61.14
2019-05-13T05:47:03.668Z,59.25
2019-05-13T05:49:34.343Z,60.24
2019-05-13T05:52:07.563Z,61.25
2019-05-13T05:54:39.132Z,60.88
2019-05-13T05:57:11.905Z,60.86
2019-05-13T05:59:42.554Z,60.29
2019-05-13T06:02:13.019Z,60.37
2019-05-13T06:04:43.384Z,60.28
2019-05-13T06:07:15.678Z,59.43
2019-05-13T06:09:45.368Z,57.66
2019-05-13T06:12:15.242Z,57.81
2019-05-13T06:14:46.477Z,56.32
2019-05-13T06:17:17.817Z,54.95
2019-05-13T06:19:47.695Z,56.72
2019-05-13T06:22:17.501Z,57.55
2019-05-13T06:24:47.376Z,56.83
2019-05-13T06:27:17.876Z,55.43
2019-05-13T06:29:49.330Z,53.68
2019-05-13T06:32:25.357Z,54.51
2019-05-13T06:34:52.609Z,54.86
2019-05-13T06:37:23.446Z,55.55
2019-05-13T06:39:53.018Z,55.24
2019-05-13T06:42:22.617Z,55.02
2019-05-13T06:44:52.672Z,53.42
2019-05-13T06:47:24.624Z,52.90
2019-05-13T06:49:54.665Z,52.22
2019-05-13T06:52:24.826Z,52.71
2019-05-13T06:54:56.429Z,52.52
2019-05-13T06:57:28.111Z,53.47
2019-05-13T07:00:01.414Z,51.25
2019-05-13T07:02:32.090Z,51.73
2019-05-13T07:05:02.525Z,53.26
2019-05-13T07:07:32.242Z,53.37
2019-05-13T07:10:06.916Z,51.76
2019-05-13T07:12:41.184Z,49.80
2019-05-13T07:15:11.746Z,48.11
2019-05-13T07:17:41.752Z,48.07
2019-05-13T07:20:13.165Z,48.05
2019-05-13T07:22:42.934Z,49.33
2019-05-13T07:25:13.029Z,48.82
2019-05-13T07:27:44.105Z,48.33
2019-05-13T07:30:14.740Z,47.86
2019-05-13T07:32:44.707Z,47.20
2019-05-13T07:35:14.966Z,48.35
2019-05-13T07:37:44.864Z,47.44
2019-05-13T07:40:16.945Z,47.75
2019-05-13T07:42:47.934Z,46.13
2019-05-13T07:45:17.961Z,44.73
2019-05-13T07:47:47.660Z,47.11
2019-05-13T07:50:17.195Z,47.13
2019-05-13T07:52:47.588Z,46.21
2019-05-13T07:55:17.410Z,46.82
2019-05-13T07:57:48.179Z,46.15
2019-05-13T08:00:21.808Z,45.16
2019-05-13T08:02:52.311Z,45.81
2019-05-13T08:05:23.124Z,43.68
2019-05-13T08:07:53.248Z,44.04
2019-05-13T08:10:23.335Z,45.69
2019-05-13T08:12:52.897Z,47.77
2019-05-13T08:15:23.144Z,47.22
2019-05-13T08:17:53.627Z,45.26
2019-05-13T08:20:23.594Z,43.95
2019-05-13T08:22:53.583Z,45.56
2019-05-13T08:25:23.129Z,43.65
2019-05-13T08:27:52.660Z,44.02
2019-05-13T08:30:22.908Z,45.28
2019-05-13T08:32:54.710Z,43.40
2019-05-13T08:35:25.357Z,44.33
2019-05-13T08:37:54.777Z,42.52
2019-05-13T08:40:24.313Z,40.51
2019-05-13T08:42:54.077Z,41.28
2019-05-13T08:45:24.493Z,39.69
2019-05-13T08:47:54.930Z,40.54
2019-05-13T08:50:25.943Z,40.19
2019-05-13T08:52:55.614Z,42.31
2019-05-13T08:55:25.771Z,39.42
2019-05-13T09:00:52.899Z,37.09
2019-05-13T09:03:23.323Z,37.03
2019-05-13T09:05:54.126Z,37.97
2019-05-13T09:08:26.525Z,37.01
2019-05-13T09:10:57.271Z,39.26
2019-05-13T09:13:27.566Z,38.11
2019-05-13T09:15:57.038Z,39.41
2019-05-13T09:18:27.149Z,37.98
2019-05-13T09:20:57.145Z,37.68
2019-05-13T09:23:26.934Z,36.73
2019-05-13T09:25:56.318Z,33.45
2019-05-13T09:28:25.693Z,33.76
2019-05-13T09:30:55.235Z,34.81
2019-05-13T09:33:24.665Z,36.28
2019-05-13T09:35:54.237Z,35.25
2019-05-13T09:38:24.116Z,34.42
2019-05-13T09:41:01.696Z,33.35
2019-05-13T09:43:31.529Z,36.91
2019-05-13T09:46:02.010Z,35.52
2019-05-13T09:48:32.248Z,35.67
2019-05-13T09:51:02.596Z,35.81
2019-05-13T09:53:32.799Z,37.12
2019-05-13T09:56:05.795Z,37.95
2019-05-13T09:58:36.174Z,37.14
2019-05-13T10:01:05.885Z,36.21
2019-05-13T10:03:51.967Z,34.31
2019-05-13T10:06:06.741Z,33.58
2019-05-13T10:08:36.577Z,34.71
2019-05-13T10:11:06.306Z,34.85
2019-05-13T10:13:36.495Z,32.31
2019-05-13T10:16:07.245Z,32.47
2019-05-13T10:18:37.129Z,35.76
2019-05-13T10:21:07.642Z,36.09
2019-05-13T10:23:37.708Z,33.02
2019-05-13T10:26:12.530Z,34.37
2019-05-13T10:28:42.991Z,36.26
2019-05-13T10:31:13.895Z,33.65
2019-05-13T10:33:43.337Z,32.66
2019-05-13T10:36:12.987Z,30.90
2019-05-13T10:38:42.346Z,33.39
2019-05-13T10:41:12.335Z,33.75
2019-05-13T10:43:44.209Z,33.12
2019-05-13T10:46:13.559Z,34.47
2019-05-13T10:48:44.855Z,34.59
2019-05-13T10:51:14.482Z,34.50
2019-05-13T10:53:44.430Z,34.06
2019-05-13T10:56:14.004Z,33.83
2019-05-13T10:58:44.372Z,33.66
2019-05-13T11:01:15.185Z,33.47
2019-05-13T11:03:44.781Z,34.18
2019-05-13T11:06:14.985Z,32.82
2019-05-13T11:08:44.405Z,33.66
2019-05-13T11:11:14.641Z,32.04
2019-05-13T11:13:55.177Z,32.94
2019-05-13T11:16:16.577Z,34.46
2019-05-13T11:18:46.150Z,35.05
2019-05-13T11:21:15.507Z,34.11
2019-05-13T11:23:45.706Z,34.15
2019-05-13T11:26:15.368Z,33.55
2019-05-13T11:28:44.814Z,33.82
2019-05-13T11:31:14.331Z,33.81
2019-05-13T11:33:44.073Z,30.66
2019-05-13T11:36:19.561Z,32.07
2019-05-13T11:38:49.769Z,32.19
2019-05-13T11:41:22.936Z,31.64
2019-05-13T11:44:11.015Z,31.51
2019-05-13T11:46:24.316Z,32.10
2019-05-13T11:48:54.459Z,31.17
2019-05-13T11:51:25.703Z,33.63
2019-05-13T11:53:55.635Z,34.98
2019-05-13T11:56:25.943Z,33.41
2019-05-13T11:58:55.905Z,34.54
2019-05-13T12:01:25.415Z,36.41
2019-05-13T12:03:55.132Z,36.44
2019-05-13T12:06:26.219Z,36.69
2019-05-13T12:08:55.900Z,35.40
2019-05-13T12:11:27.531Z,34.99
2019-05-13T12:13:56.905Z,33.77
2019-05-13T12:16:27.485Z,33.61
2019-05-13T12:18:57.866Z,32.87
2019-05-13T12:21:27.631Z,32.74
2019-05-13T12:23:57.917Z,33.48
2019-05-13T12:26:27.852Z,31.50
2019-05-13T12:28:57.442Z,29.96
2019-05-13T12:31:27.149Z,29.85
2019-05-13T12:33:56.999Z,30.64
2019-05-13T12:36:26.469Z,31.25
2019-05-13T12:38:56.007Z,29.95
2019-05-13T12:41:25.632Z,29.76
2019-05-13T12:43:55.652Z,31.95
2019-05-13T12:46:25.199Z,32.30
2019-05-13T12:48:54.831Z,32.68
2019-05-13T12:51:26.051Z,31.67
2019-05-13T12:53:55.447Z,30.72
2019-05-13T12:56:25.172Z,30.94
2019-05-13T12:58:54.605Z,30.55
2019-05-13T13:01:24.806Z,29.83
2019-05-13T13:03:54.585Z,29.15
2019-05-13T13:06:32.408Z,28.31
2019-05-13T13:09:16.448Z,29.57
2019-05-13T13:12:34.642Z,29.72
2019-05-13T13:14:58.486Z,28.46
2019-05-13T13:17:28.806Z,27.51
2019-05-13T13:20:08.218Z,26.72
2019-05-13T13:22:32.148Z,25.91
2019-05-13T13:25:05.033Z,26.26
2019-05-13T13:27:59.863Z,25.78
2019-05-13T13:30:09.255Z,26.33
2019-05-13T13:32:38.920Z,27.29
2019-05-13T13:35:08.907Z,26.98
2019-05-13T13:37:38.448Z,26.96
2019-05-13T13:40:08.392Z,26.94
2019-05-13T13:42:38.126Z,25.72
2019-05-13T13:45:08.987Z,25.44
2019-05-13T13:50:16.844Z,25.48
2019-05-13T13:52:52.558Z,24.93
2019-05-13T13:55:25.569Z,25.43
2019-05-13T13:57:56.702Z,27.01
2019-05-13T14:00:38.175Z,27.25
2019-05-13T14:02:56.157Z,27.98
2019-05-13T14:05:25.457Z,28.16
2019-05-13T14:07:12.890Z,25.67
2019-05-13T14:07:55.164Z,28.94
2019-05-13T14:10:25.268Z,29.10
2019-05-13T14:12:55.230Z,28.95
2019-05-13T14:15:25.706Z,27.26
2019-05-13T14:17:56.516Z,28.18
2019-05-13T14:20:26.585Z,28.49
2019-05-13T14:22:58.036Z,28.23
2019-05-13T14:25:28.042Z,28.34
2019-05-13T14:27:58.530Z,28.12
2019-05-13T14:30:30.828Z,28.30
2019-05-13T14:33:02.143Z,28.22
2019-05-13T14:35:31.222Z,29.38
2019-05-13T14:38:02.454Z,29.42
2019-05-13T14:40:32.070Z,29.88
2019-05-13T14:43:03.868Z,29.36
2019-05-13T14:45:33.257Z,29.12
2019-05-13T14:48:02.995Z,28.93
2019-05-13T14:50:32.693Z,28.68
2019-05-13T14:53:05.500Z,29.60
2019-05-13T14:55:35.082Z,29.59
2019-05-13T14:58:06.650Z,29.66
2019-05-13T15:00:36.167Z,30.06
2019-05-13T15:03:13.056Z,28.65
2019-05-13T15:05:43.111Z,29.13
2019-05-13T15:08:14.982Z,29.52
2019-05-13T15:10:45.459Z,29.67
2019-05-13T15:13:15.239Z,29.63
2019-05-13T15:15:44.556Z,29.95
2019-05-13T15:18:14.169Z,30.08
2019-05-13T15:20:43.922Z,29.55
2019-05-13T15:23:13.611Z,30.39
2019-05-13T15:25:43.903Z,30.04
2019-05-13T15:28:13.339Z,29.23
2019-05-13T15:30:42.701Z,29.29
2019-05-13T15:33:12.577Z,29.92
2019-05-13T15:35:42.791Z,29.83
2019-05-13T15:38:12.864Z,29.19
2019-05-13T15:40:42.775Z,29.96
2019-05-13T15:43:13.526Z,29.83
2019-05-13T15:45:44.605Z,30.09
2019-05-13T15:48:14.533Z,30.08
2019-05-13T15:50:44.848Z,30.24
2019-05-13T15:53:14.696Z,30.00
2019-05-13T15:55:44.414Z,30.01
2019-05-13T15:58:13.891Z,30.53
2019-05-13T16:00:43.906Z,29.56
2019-05-13T16:03:14.759Z,29.34
2019-05-13T16:05:45.068Z,29.87
2019-05-13T16:08:14.495Z,29.40
2019-05-13T16:10:46.449Z,29.24
2019-05-13T16:13:16.730Z,28.63
2019-05-13T16:15:46.182Z,27.94
2019-05-13T16:18:15.613Z,28.86
2019-05-13T16:20:45.801Z,28.93
2019-05-13T16:23:15.230Z,29.48
2019-05-13T16:25:44.918Z,29.77
2019-05-13T16:28:14.471Z,29.49
2019-05-13T16:30:47.461Z,30.05
2019-05-13T16:33:17.224Z,29.98
2019-05-13T16:35:51.588Z,28.92
2019-05-13T16:38:23.160Z,29.52
2019-05-13T16:40:53.323Z,29.77
2019-05-13T16:43:25.584Z,29.64
2019-05-13T16:45:56.723Z,28.57
2019-05-13T16:48:26.735Z,29.21
2019-05-13T16:50:58.383Z,28.70
2019-05-13T16:53:31.263Z,28.49
2019-05-13T16:56:02.129Z,29.05
2019-05-13T16:58:32.759Z,28.86
2019-05-13T17:01:06.957Z,27.79
2019-05-13T17:03:36.471Z,27.57
2019-05-13T17:06:06.557Z,27.32
2019-05-13T17:08:37.737Z,27.07
2019-05-13T17:11:11.550Z,27.20
2019-05-13T17:13:43.754Z,27.41
2019-05-13T17:16:14.087Z,26.96
2019-05-13T17:18:44.397Z,26.79
2019-05-13T17:21:14.383Z,27.59
2019-05-13T17:23:45.071Z,27.00
2019-05-13T17:26:15.383Z,27.13
2019-05-13T17:28:44.838Z,27.45
2019-05-13T17:31:15.087Z,27.69
2019-05-13T17:33:45.830Z,28.16
2019-05-13T17:36:17.318Z,28.74
2019-05-13T17:38:47.150Z,29.06
2019-05-13T17:41:17.631Z,29.05
2019-05-13T17:43:48.840Z,29.51
2019-05-13T17:46:18.853Z,29.61
2019-05-13T17:48:52.028Z,29.51
2019-05-13T17:51:22.514Z,30.68
2019-05-13T17:53:52.615Z,29.32
2019-05-13T17:56:22.608Z,29.63
2019-05-13T17:58:52.360Z,29.90
2019-05-13T18:01:22.090Z,30.74
2019-05-13T18:03:52.096Z,30.94
2019-05-13T18:06:22.334Z,31.57
2019-05-13T18:08:52.591Z,32.13
2019-05-13T18:11:23.027Z,32.16
2019-05-13T18:13:53.345Z,32.32
2019-05-13T18:16:22.749Z,31.82
2019-05-13T18:18:52.574Z,32.18
2019-05-13T18:21:23.341Z,32.38
2019-05-13T18:23:53.449Z,33.02
2019-05-13T18:26:23.535Z,33.43
2019-05-13T18:28:54.644Z,34.34
2019-05-13T18:31:25.001Z,34.36
2019-05-13T18:33:54.654Z,34.69
2019-05-13T18:36:27.955Z,34.99
2019-05-13T18:38:58.029Z,35.97
2019-05-13T18:41:28.369Z,36.18
2019-05-13T18:43:58.485Z,36.52
2019-05-13T18:46:29.165Z,36.90
2019-05-13T18:49:02.165Z,37.13
2019-05-13T18:51:31.750Z,36.78
2019-05-13T18:54:01.384Z,37.71
2019-05-13T18:56:32.946Z,37.73
2019-05-13T18:59:04.193Z,37.91
2019-05-13T19:01:33.936Z,38.53
2019-05-13T19:04:03.725Z,38.64
2019-05-13T19:06:33.687Z,38.69
2019-05-13T19:09:06.557Z,38.81
2019-05-13T19:11:38.108Z,38.88
2019-05-13T19:14:08.198Z,39.72
2019-05-13T19:16:42.162Z,39.53
2019-05-13T19:19:16.297Z,39.95
2019-05-13T19:21:44.578Z,40.10
2019-05-13T19:24:20.202Z,39.70
2019-05-13T19:26:55.610Z,40.02
2019-05-13T19:29:26.400Z,40.61
2019-05-13T19:31:57.034Z,40.87
2019-05-13T19:34:27.974Z,41.01
2019-05-13T19:36:57.806Z,41.48
2019-05-13T19:39:37.553Z,42.02
2019-05-13T19:42:11.607Z,42.09
2019-05-13T19:44:47.374Z,42.27
2019-05-13T19:47:28.262Z,43.16
2019-05-13T19:50:09.619Z,43.56
2019-05-13T19:52:46.041Z,43.76
2019-05-13T19:55:28.234Z,43.99
2019-05-13T19:58:07.493Z,44.93
2019-05-13T20:00:45.599Z,46.22
2019-05-13T20:03:33.698Z,45.87
2019-05-13T20:06:14.735Z,47.35
2019-05-13T20:08:53.681Z,47.48
2019-05-13T20:11:31.388Z,48.41
2019-05-13T20:14:05.811Z,48.03
2019-05-13T20:16:42.116Z,49.73
2019-05-13T20:19:15.893Z,49.55
2019-05-13T20:21:52.997Z,50.12
2019-05-13T20:24:31.309Z,51.48
2019-05-13T20:27:11.999Z,53.35
2019-05-13T20:29:53.772Z,52.65
2019-05-13T20:32:29.841Z,51.89
2019-05-13T20:35:11.476Z,52.29
2019-05-13T20:37:46.017Z,51.98
2019-05-13T20:40:22.056Z,51.44
2019-05-13T20:42:54.173Z,52.96
2019-05-13T20:45:36.514Z,53.21
2019-05-13T20:48:11.978Z,53.41
2019-05-13T20:50:54.825Z,53.28
2019-05-13T20:53:36.826Z,53.13
2019-05-13T20:56:15.015Z,52.66
2019-05-13T20:59:02.398Z,52.06
2019-05-13T21:01:41.958Z,51.94
2019-05-13T21:04:32.240Z,52.51
2019-05-13T21:07:06.418Z,52.22
2019-05-13T21:09:42.494Z,52.47
2019-05-13T21:12:22.075Z,52.33
2019-05-13T21:15:18.685Z,52.46
2019-05-13T21:17:51.621Z,52.76
2019-05-13T21:20:25.871Z,52.84
2019-05-13T21:22:54.938Z,52.98
2019-05-13T21:25:27.151Z,52.91
2019-05-13T21:27:59.465Z,52.62
2019-05-13T21:30:31.772Z,52.68
2019-05-13T21:33:03.240Z,52.46
2019-05-13T21:35:34.285Z,52.47
2019-05-13T21:38:04.257Z,52.02
2019-05-13T21:40:37.231Z,51.45
2019-05-13T21:43:08.986Z,51.17
2019-05-13T21:45:41.528Z,51.11
2019-05-13T21:48:11.626Z,50.45
2019-05-13T21:50:42.407Z,50.21
2019-05-13T21:53:12.530Z,49.52
2019-05-13T21:55:45.792Z,49.71
2019-05-13T21:58:16.658Z,49.28
2019-05-13T22:00:54.187Z,49.13
2019-05-13T22:03:25.917Z,49.47
2019-05-13T22:05:56.255Z,49.14
2019-05-13T22:08:26.812Z,48.88
2019-05-13T22:10:58.820Z,49.00
2019-05-13T22:13:32.136Z,48.63
2019-05-13T22:16:04.066Z,48.30
2019-05-13T22:18:36.258Z,48.39
2019-05-13T22:21:07.349Z,47.83
2019-05-13T22:23:41.194Z,47.76
2019-05-13T22:26:16.343Z,47.17
2019-05-13T22:28:48.459Z,47.11
2019-05-13T22:31:19.323Z,46.85
2019-05-13T22:33:51.696Z,46.25
2019-05-13T22:36:21.963Z,46.17
2019-05-13T22:38:52.255Z,44.57
2019-05-13T22:41:22.329Z,44.59
2019-05-13T22:43:58.233Z,42.89
2019-05-13T22:46:23.649Z,43.94
2019-05-13T22:48:55.558Z,42.49
2019-05-13T22:51:25.202Z,42.22
2019-05-13T22:53:55.755Z,41.56
2019-05-13T22:56:26.251Z,40.42
2019-05-13T22:58:55.993Z,40.53
2019-05-13T23:01:26.177Z,38.95
2019-05-13T23:07:24.977Z,38.15
2019-05-13T23:09:54.549Z,37.02
2019-05-13T23:12:25.055Z,37.41
2019-05-13T23:14:54.644Z,36.34
2019-05-13T23:17:24.071Z,35.69
2019-05-13T23:19:53.746Z,36.09
2019-05-13T23:22:23.839Z,36.59
2019-05-13T23:24:53.528Z,37.45
2019-05-13T23:27:23.312Z,38.16
2019-05-13T23:29:53.253Z,38.86
2019-05-13T23:32:23.215Z,38.96
2019-05-13T23:34:53.106Z,39.49
2019-05-13T23:37:23.208Z,39.95
2019-05-13T23:39:52.729Z,40.05
2019-05-13T23:42:22.095Z,40.84
2019-05-13T23:44:52.160Z,41.14
2019-05-13T23:47:21.929Z,41.24
2019-05-13T23:49:51.544Z,41.50
2019-05-13T23:52:21.959Z,41.37
2019-05-13T23:54:51.841Z,41.26
2019-05-13T23:57:22.331Z,41.45
2019-05-13T23:59:51.895Z,41.88
